Time;durP1;ratioP1;P1;durP2;ratioP2;P2;SDS_P1;SDS_P2;PMS_P1;PMS_P2;Temp;Humidity;BMP_temperature;BMP_pressure;BME280_temperature;BME280_humidity;BME280_pressure;Samples;Min_cycle;Max_cycle;Signal;HPM_P1;HPM_P2
2023/08/12 00:00:11;;;;;;;0.10;0.10;;;;;;;18.68;70.85;97917.69;5031776;28;20048;-73
2023/08/12 00:02:43;;;;;;;0.10;0.10;;;;;;;18.58;71.60;97920.16;4999409;28;20048;-73
2023/08/12 00:05:11;;;;;;;0.10;0.10;;;;;;;18.48;71.84;97925.31;5031227;28;20049;-71
2023/08/12 00:07:41;;;;;;;0.10;0.10;;;;;;;18.42;72.07;97928.16;5032939;28;20044;-73
2023/08/12 00:10:10;;;;;;;0.10;0.10;;;;;;;18.50;71.42;97920.50;5032865;28;20050;-71
2023/08/12 00:12:40;;;;;;;0.10;0.10;;;;;;;18.53;71.60;97913.81;5030421;28;20120;-72
2023/08/12 00:15:10;;;;;;;0.05;0.05;;;;;;;18.66;70.76;97919.00;5032813;28;20049;-73
2023/08/12 00:17:41;;;;;;;0.10;0.10;;;;;;;18.69;70.47;97918.50;5032229;28;20041;-72
2023/08/12 00:20:10;;;;;;;0.10;0.10;;;;;;;18.75;70.29;97924.84;5032490;28;20045;-72
2023/08/12 00:22:39;;;;;;;0.10;0.10;;;;;;;18.77;70.35;97911.91;5031190;28;20120;-71
2023/08/12 00:25:07;;;;;;;0.10;0.10;;;;;;;18.76;70.52;97921.09;5031400;28;20045;-72
2023/08/12 00:27:35;;;;;;;0.10;0.10;;;;;;;18.91;69.58;97918.69;5031712;28;20033;-72
2023/08/12 00:30:05;;;;;;;0.13;0.13;;;;;;;18.80;70.10;97916.81;5015121;28;20131;-71
2023/08/12 00:32:33;;;;;;;0.05;0.05;;;;;;;18.87;69.46;97910.25;5028731;28;20374;-72
2023/08/12 00:35:00;;;;;;;0.10;0.10;;;;;;;18.98;69.23;97913.97;5012835;28;20052;-72
2023/08/12 00:37:29;;;;;;;0.10;0.10;;;;;;;18.98;68.94;97912.09;5013932;28;20040;-72
2023/08/12 00:39:57;;;;;;;0.10;0.10;;;;;;;18.90;69.36;97914.31;5014064;28;20542;-71
2023/08/12 00:42:24;;;;;;;0.10;0.10;;;;;;;18.92;69.17;97910.31;5032092;28;20061;-72
2023/08/12 00:44:52;;;;;;;0.30;0.30;;;;;;;18.93;69.23;97903.84;5014044;28;20418;-72
2023/08/12 00:47:22;;;;;;;0.15;0.15;;;;;;;18.66;70.41;97914.41;5014671;28;20443;-71
2023/08/12 00:49:50;;;;;;;0.08;0.08;;;;;;;18.41;70.76;97907.59;5028506;28;20103;-72
2023/08/12 00:52:19;;;;;;;0.10;0.10;;;;;;;18.30;71.42;97903.84;5030568;28;20120;-73
2023/08/12 00:54:47;;;;;;;0.13;0.13;;;;;;;18.30;71.28;97903.84;5013920;28;20037;-73
2023/08/12 00:57:15;;;;;;;0.03;0.03;;;;;;;18.32;71.11;97909.84;5014216;28;20041;-72
2023/08/12 00:59:45;;;;;;;0.10;0.10;;;;;;;18.24;71.28;97899.38;5013741;28;20528;-72
2023/08/12 01:02:13;;;;;;;0.10;0.10;;;;;;;18.37;71.06;97896.44;5010548;28;20140;-71
2023/08/12 01:04:42;;;;;;;0.10;0.10;;;;;;;18.40;71.36;97905.94;5028740;28;20136;-73
2023/08/12 01:07:11;;;;;;;0.10;0.10;;;;;;;18.36;71.45;97900.19;5014177;28;20041;-71
2023/08/12 01:09:39;;;;;;;0.08;0.08;;;;;;;18.34;71.08;97896.91;5021204;28;20048;-73
2023/08/12 01:12:12;;;;;;;0.10;0.10;;;;;;;18.15;72.09;97881.88;5010081;28;20052;-72
2023/08/12 01:14:46;;;;;;;0.10;0.10;;;;;;;18.07;72.48;97888.44;5029860;28;20045;-73
2023/08/12 01:17:16;;;;;;;0.10;0.10;;;;;;;18.02;72.65;97877.53;5012168;28;20052;-72
2023/08/12 01:19:47;;;;;;;0.10;0.10;;;;;;;17.97;72.91;97878.22;5049606;23;20044;-71
2023/08/12 01:22:15;;;;;;;0.20;0.20;;;;;;;18.06;72.21;97886.00;5069841;28;20064;-71
2023/08/12 01:24:45;;;;;;;0.15;0.15;;;;;;;18.05;72.14;97871.66;5070958;28;20052;-71
2023/08/12 01:27:14;;;;;;;0.10;0.10;;;;;;;18.05;72.14;97871.66;5070984;28;20083;-71
2023/08/12 01:29:44;;;;;;;0.10;0.10;;;;;;;18.13;71.77;97873.19;5067002;28;20570;-71
2023/08/12 01:32:26;;;;;;;0.20;0.20;;;;;;;18.12;71.77;97869.66;5069795;28;20398;-71
2023/08/12 01:34:58;;;;;;;0.10;0.10;;;;;;;18.08;71.77;97864.94;5067648;28;20058;-71
2023/08/12 01:37:30;;;;;;;0.10;0.10;;;;;;;17.75;73.13;97866.38;5065598;28;20043;-71
2023/08/12 01:40:04;;;;;;;0.10;0.10;;;;;;;17.73;73.10;97855.00;5069672;28;20131;-71
2023/08/12 01:42:34;;;;;;;0.00;0.00;;;;;;;17.72;73.35;97852.53;5070691;28;20086;-71
2023/08/12 01:45:02;;;;;;;0.10;0.10;;;;;;;17.71;73.45;97857.09;5071447;28;20051;-71
2023/08/12 01:47:29;;;;;;;0.10;0.10;;;;;;;17.60;73.80;97857.88;5071077;28;20087;-71
2023/08/12 01:49:57;;;;;;;0.25;0.25;;;;;;;17.67;73.17;97853.19;5068736;28;20504;-71
2023/08/12 01:52:25;;;;;;;0.13;0.13;;;;;;;17.56;73.72;97856.69;5069554;28;20050;-71
2023/08/12 01:54:54;;;;;;;0.20;0.20;;;;;;;17.59;73.33;97854.34;5068943;28;20032;-71
2023/08/12 01:57:23;;;;;;;0.00;0.00;;;;;;;17.83;72.29;97857.09;5063672;28;20055;-71
2023/08/12 01:59:52;;;;;;;0.00;0.00;;;;;;;17.66;73.04;97859.66;5068945;28;20215;-71
2023/08/12 02:02:20;;;;;;;0.10;0.10;;;;;;;17.59;73.20;97850.81;5068759;28;20040;-71
2023/08/12 02:04:48;;;;;;;0.00;0.00;;;;;;;17.73;72.57;97846.06;5070051;28;20044;-71
2023/08/12 02:07:16;;;;;;;0.10;0.10;;;;;;;17.44;73.59;97843.16;5069427;28;20044;-71
2023/08/12 02:09:43;;;;;;;0.10;0.10;;;;;;;17.25;74.44;97834.31;5074486;28;20132;-71
2023/08/12 02:12:12;;;;;;;0.10;0.10;;;;;;;17.27;74.34;97836.78;5068897;28;20493;-71
2023/08/12 02:14:41;;;;;;;0.10;0.10;;;;;;;17.23;74.45;97839.13;5070305;28;20120;-71
2023/08/12 02:17:09;;;;;;;0.05;0.05;;;;;;;17.13;75.30;97824.59;5068683;28;20044;-72
2023/08/12 02:19:37;;;;;;;0.10;0.10;;;;;;;17.39;74.08;97834.13;5068962;28;20044;-71
2023/08/12 02:22:05;;;;;;;0.10;0.10;;;;;;;17.18;74.75;97840.88;5067474;28;20056;-71
2023/08/12 02:24:32;;;;;;;0.10;0.10;;;;;;;17.24;74.37;97834.56;5066592;28;20136;-71
2023/08/12 02:27:00;;;;;;;0.20;0.20;;;;;;;17.33;73.90;97829.66;5068452;28;20501;-72
2023/08/12 02:29:28;;;;;;;0.10;0.10;;;;;;;17.13;74.90;97830.78;5078567;28;20036;-71
2023/08/12 02:31:57;;;;;;;0.10;0.10;;;;;;;17.08;74.92;97819.88;5067383;28;20052;-71
2023/08/12 02:34:25;;;;;;;0.13;0.13;;;;;;;17.25;74.04;97822.72;5069887;28;20080;-71
2023/08/12 02:36:52;;;;;;;0.10;0.10;;;;;;;17.15;74.46;97823.28;5068456;28;20041;-71
2023/08/12 02:39:20;;;;;;;0.10;0.10;;;;;;;17.10;74.85;97825.84;5069171;28;20060;-71
2023/08/12 02:41:47;;;;;;;0.03;0.03;;;;;;;17.25;74.29;97822.72;5069005;28;20044;-71
2023/08/12 02:44:15;;;;;;;0.10;0.10;;;;;;;17.16;74.44;97824.94;5070013;28;20119;-71
2023/08/12 02:46:43;;;;;;;0.10;0.10;;;;;;;17.03;74.74;97818.91;5069095;28;20059;-72
2023/08/12 02:49:12;;;;;;;0.10;0.10;;;;;;;16.92;75.28;97817.84;5067177;28;20049;-72
2023/08/12 02:51:39;;;;;;;0.10;0.10;;;;;;;16.77;76.01;97812.03;5069998;28;20044;-72
2023/08/12 02:54:07;;;;;;;0.10;0.10;;;;;;;16.62;77.10;97806.19;5073094;28;20086;-72
2023/08/12 02:56:35;;;;;;;0.10;0.10;;;;;;;16.61;77.22;97805.34;5071920;28;20456;-72
2023/08/12 02:59:03;;;;;;;0.10;0.10;;;;;;;16.70;76.68;97805.91;5071443;28;20421;-72
2023/08/12 03:01:30;;;;;;;0.20;0.20;;;;;;;16.84;76.16;97810.88;5070347;28;20557;-72
2023/08/12 03:03:58;;;;;;;0.10;0.10;;;;;;;16.90;75.96;97802.94;5070851;28;20135;-72
2023/08/12 03:06:27;;;;;;;0.08;0.08;;;;;;;17.02;75.52;97799.22;5071407;28;20098;-72
2023/08/12 03:08:55;;;;;;;0.10;0.10;;;;;;;17.14;74.99;97800.06;5070998;28;20047;-72
2023/08/12 03:11:23;;;;;;;0.13;0.13;;;;;;;17.17;75.06;97793.38;5070854;28;20040;-73
2023/08/12 03:13:52;;;;;;;0.10;0.10;;;;;;;17.24;74.85;97791.38;5070366;28;20045;-73
2023/08/12 03:16:19;;;;;;;0.10;0.10;;;;;;;17.31;74.94;97794.00;5064551;28;20087;-72
2023/08/12 03:18:47;;;;;;;0.10;0.10;;;;;;;17.38;74.41;97797.41;5070956;28;20037;-72
2023/08/12 03:21:15;;;;;;;0.10;0.10;;;;;;;17.23;74.58;97798.66;5025819;28;1018431;-72
2023/08/12 03:23:44;;;;;;;0.10;0.10;;;;;;;17.18;75.43;97797.72;5067338;28;20063;-72
2023/08/12 03:26:14;;;;;;;0.08;0.08;;;;;;;17.16;75.63;97797.13;5062307;28;20048;-72
2023/08/12 03:28:42;;;;;;;0.00;0.00;;;;;;;17.24;75.10;97797.59;5069919;28;20051;-72
2023/08/12 03:31:13;;;;;;;0.10;0.10;;;;;;;17.25;75.14;97788.47;5071232;28;20044;-72
2023/08/12 03:33:42;;;;;;;0.10;0.10;;;;;;;17.33;74.52;97783.81;5072498;28;20094;-72
2023/08/12 03:36:09;;;;;;;0.10;0.10;;;;;;;17.43;74.19;97784.88;5072954;28;20102;-72
2023/08/12 03:38:37;;;;;;;0.10;0.10;;;;;;;17.46;74.41;97772.75;5074017;28;20037;-72
2023/08/12 03:41:08;;;;;;;0.10;0.10;;;;;;;17.62;73.66;97780.19;5086661;28;20582;-72
2023/08/12 03:43:37;;;;;;;0.10;0.10;;;;;;;17.58;73.68;97785.22;5072202;28;20047;-71
2023/08/12 03:46:06;;;;;;;0.10;0.10;;;;;;;17.42;74.17;97777.00;5071587;28;20056;-71
2023/08/12 03:48:33;;;;;;;0.10;0.10;;;;;;;17.43;73.97;97779.47;5070593;28;20036;-71
2023/08/12 03:51:01;;;;;;;0.15;0.15;;;;;;;17.57;73.33;97770.06;5069677;28;20193;-71
2023/08/12 03:53:29;;;;;;;0.32;0.32;;;;;;;17.38;73.69;97773.09;5071880;28;20464;-71
2023/08/12 03:55:56;;;;;;;0.15;0.15;;;;;;;17.28;74.24;97775.56;5071841;28;20135;-71
2023/08/12 03:58:25;;;;;;;0.10;0.10;;;;;;;17.24;74.15;97772.50;5072513;28;20066;-71
2023/08/12 04:00:53;;;;;;;0.22;0.22;;;;;;;17.22;74.11;97780.84;5071485;28;20455;-71
2023/08/12 04:03:21;;;;;;;0.10;0.10;;;;;;;17.27;74.15;97787.41;5071609;28;20049;-71
2023/08/12 04:05:51;;;;;;;0.10;0.10;;;;;;;17.20;74.78;97782.13;5072132;28;20044;-71
2023/08/12 04:08:20;;;;;;;0.10;0.10;;;;;;;17.23;74.83;97785.16;5065786;28;20074;-71
2023/08/12 04:10:48;;;;;;;0.15;0.15;;;;;;;17.31;74.67;97785.91;5067734;28;20517;-71
2023/08/12 04:13:16;;;;;;;0.05;0.05;;;;;;;17.35;74.61;97782.50;5067392;28;20512;-71
2023/08/12 04:15:49;;;;;;;0.10;0.10;;;;;;;17.33;74.88;97786.50;5072170;28;20068;-71
2023/08/12 04:18:18;;;;;;;0.08;0.08;;;;;;;17.44;74.26;97773.00;5070769;28;20045;-71
2023/08/12 04:20:46;;;;;;;0.13;0.13;;;;;;;17.45;74.17;97787.31;5066884;28;20409;-71
2023/08/12 04:23:14;;;;;;;0.10;0.10;;;;;;;17.42;74.46;97777.00;5070813;28;20123;-71
2023/08/12 04:25:44;;;;;;;0.10;0.10;;;;;;;17.51;74.15;97779.13;5071043;28;20052;-71
2023/08/12 04:28:13;;;;;;;0.10;0.10;;;;;;;17.54;74.12;97784.06;5071500;28;20105;-71
2023/08/12 04:30:42;;;;;;;0.10;0.10;;;;;;;17.62;73.78;97782.88;5069637;28;20041;-71
2023/08/12 04:33:11;;;;;;;0.10;0.10;;;;;;;17.65;73.59;97779.72;5070048;28;20059;-71
2023/08/12 04:35:39;;;;;;;0.10;0.10;;;;;;;17.70;73.42;97782.53;5070830;28;20063;-71
2023/08/12 04:38:08;;;;;;;0.10;0.10;;;;;;;17.78;73.25;97784.06;5071232;28;20056;-72
2023/08/12 04:40:39;;;;;;;0.00;0.00;;;;;;;17.81;73.30;97783.59;5069426;28;20072;-71
2023/08/12 04:43:08;;;;;;;0.10;0.10;;;;;;;17.87;73.18;97783.47;5070159;28;20056;-71
2023/08/12 04:45:35;;;;;;;0.10;0.10;;;;;;;17.90;72.73;97779.47;5070095;28;20517;-71
2023/08/12 04:48:05;;;;;;;0.13;0.13;;;;;;;17.85;72.96;97788.31;5070766;28;20052;-71
2023/08/12 04:50:35;;;;;;;0.10;0.10;;;;;;;17.93;72.53;97792.50;5070809;28;20060;-71
2023/08/12 04:53:03;;;;;;;0.17;0.17;;;;;;;17.99;72.61;97786.16;5069968;28;20080;-71
2023/08/12 04:55:31;;;;;;;0.00;0.00;;;;;;;17.98;72.48;97792.63;5058038;28;20045;-71
2023/08/12 04:58:00;;;;;;;0.05;0.05;;;;;;;17.99;72.36;97786.16;5069387;28;20159;-71
2023/08/12 05:00:28;;;;;;;0.10;0.10;;;;;;;18.06;72.22;97792.28;5070259;28;20055;-72
2023/08/12 05:02:58;;;;;;;0.10;0.10;;;;;;;18.06;72.01;97792.28;5070770;28;20601;-71
2023/08/12 05:05:26;;;;;;;0.10;0.10;;;;;;;18.14;71.85;97788.38;5069972;28;20050;-72
2023/08/12 05:07:55;;;;;;;0.10;0.10;;;;;;;18.17;71.69;97788.69;5071808;28;20132;-72
2023/08/12 05:10:24;;;;;;;0.10;0.10;;;;;;;18.24;71.26;97792.13;5061734;28;20126;-71
2023/08/12 05:12:54;;;;;;;0.00;0.00;;;;;;;18.24;71.57;97788.59;5070900;28;20467;-71
2023/08/12 05:15:22;;;;;;;0.10;0.10;;;;;;;18.29;71.24;97788.69;5068749;28;20048;-71
2023/08/12 05:17:50;;;;;;;0.08;0.08;;;;;;;18.32;71.26;97783.63;5073400;28;20501;-71
2023/08/12 05:20:21;;;;;;;0.03;0.03;;;;;;;18.36;71.16;97789.38;5066854;28;20066;-72
2023/08/12 05:22:49;;;;;;;0.20;0.20;;;;;;;18.41;70.91;97792.19;5087963;28;20072;-72
2023/08/12 05:25:18;;;;;;;0.10;0.10;;;;;;;18.52;70.77;97785.91;5067510;28;20066;-72
2023/08/12 05:27:45;;;;;;;0.10;0.10;;;;;;;18.57;70.35;97780.66;5073220;28;20370;-72
2023/08/12 05:30:14;;;;;;;0.10;0.10;;;;;;;18.62;69.88;97779.91;5072269;28;20040;-72
2023/08/12 05:32:41;;;;;;;0.10;0.10;;;;;;;18.70;69.54;97774.94;5069996;28;20559;-72
2023/08/12 05:35:09;;;;;;;0.10;0.10;;;;;;;18.78;69.29;97770.22;5069551;28;20069;-72
2023/08/12 05:37:37;;;;;;;0.10;0.10;;;;;;;18.85;69.09;97770.88;5069842;28;20051;-72
2023/08/12 05:40:08;;;;;;;0.10;0.10;;;;;;;18.90;68.76;97769.06;5069126;28;20079;-72
2023/08/12 05:42:37;;;;;;;0.35;0.35;;;;;;;19.04;68.04;97761.47;5065647;28;20453;-72
2023/08/12 05:45:05;;;;;;;0.10;0.10;;;;;;;19.15;67.88;97765.16;5071340;28;20055;-71
2023/08/12 05:47:35;;;;;;;0.05;0.05;;;;;;;19.25;67.04;97771.56;5065267;28;20485;-72
2023/08/12 05:50:03;;;;;;;0.10;0.10;;;;;;;19.36;66.81;97759.03;5070561;28;20044;-72
2023/08/12 05:52:31;;;;;;;0.10;0.10;;;;;;;19.40;66.50;97762.91;5070536;28;20045;-72
2023/08/12 05:54:58;;;;;;;0.00;0.00;;;;;;;19.46;66.38;97747.53;5069600;28;20180;-72
2023/08/12 05:57:26;;;;;;;0.10;0.10;;;;;;;19.54;66.07;97756.09;5057145;28;20040;-72
2023/08/12 05:59:57;;;;;;;0.10;0.10;;;;;;;19.62;65.51;97761.06;5068756;28;20039;-72
2023/08/12 06:02:26;;;;;;;0.00;0.00;;;;;;;19.68;65.81;97756.56;5066331;28;20040;-72
2023/08/12 06:04:54;;;;;;;0.00;0.00;;;;;;;19.75;65.28;97763.44;5069604;28;20333;-72
2023/08/12 06:07:23;;;;;;;0.00;0.00;;;;;;;19.86;65.07;97764.41;5070864;28;20075;-72
2023/08/12 06:09:50;;;;;;;0.10;0.10;;;;;;;19.92;64.84;97762.59;5070653;28;20673;-72
2023/08/12 06:12:18;;;;;;;0.10;0.10;;;;;;;19.98;64.58;97753.47;5068664;28;20132;-71
2023/08/12 06:14:46;;;;;;;0.10;0.10;;;;;;;20.02;64.50;97747.31;5070555;28;20048;-71
2023/08/12 06:17:15;;;;;;;0.10;0.10;;;;;;;20.05;64.49;97746.78;5069708;28;20044;-70
2023/08/12 06:19:42;;;;;;;0.10;0.10;;;;;;;20.10;64.34;97749.56;5069151;28;20044;-70
2023/08/12 06:22:10;;;;;;;0.10;0.10;;;;;;;20.16;64.17;97753.16;5068459;28;20390;-70
2023/08/12 06:24:38;;;;;;;0.10;0.10;;;;;;;20.23;63.95;97748.38;5066655;28;20044;-70
2023/08/12 06:27:06;;;;;;;0.10;0.10;;;;;;;20.25;63.87;97746.22;5070129;28;20520;-70
2023/08/12 06:29:33;;;;;;;0.10;0.10;;;;;;;20.31;63.83;97750.66;5069502;28;20048;-70
2023/08/12 06:32:01;;;;;;;0.10;0.10;;;;;;;20.37;63.91;97743.41;5069029;28;20102;-70
2023/08/12 06:34:30;;;;;;;0.05;0.05;;;;;;;20.47;62.82;97749.75;5070198;28;20044;-70
2023/08/12 06:36:58;;;;;;;0.10;0.10;;;;;;;20.56;62.67;97746.63;5070285;28;20036;-70
2023/08/12 06:39:25;;;;;;;0.05;0.05;;;;;;;20.68;61.87;97748.09;5069680;28;20046;-70
2023/08/12 06:41:53;;;;;;;0.00;0.00;;;;;;;20.81;61.51;97752.31;5069460;28;20047;-70
2023/08/12 06:44:21;;;;;;;0.03;0.03;;;;;;;20.92;61.68;97739.66;5065510;28;20075;-70
2023/08/12 06:46:48;;;;;;;0.10;0.10;;;;;;;21.00;60.66;97741.88;5068533;28;20496;-71
2023/08/12 06:49:16;;;;;;;0.03;0.03;;;;;;;21.17;59.94;97732.56;5069716;28;20575;-69
2023/08/12 06:51:45;;;;;;;0.10;0.10;;;;;;;21.28;59.61;97736.22;5064113;28;20053;-70
2023/08/12 06:54:13;;;;;;;0.00;0.00;;;;;;;21.41;59.12;97733.03;5066473;28;20044;-70
2023/08/12 06:56:41;;;;;;;0.10;0.10;;;;;;;21.56;59.35;97730.44;5068694;28;20101;-71
2023/08/12 06:59:09;;;;;;;0.10;0.10;;;;;;;21.75;58.21;97725.38;5066039;28;20059;-71
2023/08/12 07:01:36;;;;;;;0.10;0.10;;;;;;;21.95;57.25;97724.69;5067427;28;20064;-70
2023/08/12 07:04:04;;;;;;;0.10;0.10;;;;;;;22.12;57.58;97722.59;5070123;28;20123;-71
2023/08/12 07:06:32;;;;;;;0.00;0.00;;;;;;;22.20;57.00;97722.13;5069472;28;20093;-71
2023/08/12 07:09:01;;;;;;;0.10;0.10;;;;;;;22.22;57.48;97716.38;5061075;28;20059;-71
2023/08/12 07:11:28;;;;;;;0.10;0.10;;;;;;;22.30;56.72;97724.06;5058173;28;20036;-70
2023/08/12 07:13:56;;;;;;;0.10;0.10;;;;;;;22.35;56.69;97726.78;5068339;28;20063;-71
2023/08/12 07:16:24;;;;;;;0.00;0.00;;;;;;;22.46;56.41;97724.91;5070179;28;20051;-70
2023/08/12 07:18:52;;;;;;;0.00;0.00;;;;;;;22.53;56.68;97739.09;5067888;28;20051;-70
2023/08/12 07:21:20;;;;;;;0.00;0.00;;;;;;;22.59;56.13;97736.09;5090265;22;20044;-72
2023/08/12 07:23:48;;;;;;;0.10;0.10;;;;;;;22.63;55.69;97730.97;5061047;28;20060;-72
2023/08/12 07:26:31;;;;;;;0.10;0.10;;;;;;;22.67;55.73;97735.56;5062069;28;20052;-72
2023/08/12 07:28:59;;;;;;;0.30;0.30;;;;;;;22.72;56.19;97742.94;5059908;28;20519;-73
2023/08/12 07:31:26;;;;;;;0.10;0.10;;;;;;;22.76;55.29;97737.78;5068158;28;20119;-72
2023/08/12 07:33:54;;;;;;;0.00;0.00;;;;;;;22.78;55.73;97736.44;5076328;28;20106;-72
2023/08/12 07:36:22;;;;;;;0.10;0.10;;;;;;;22.75;55.73;97733.41;5059032;28;20040;-74
2023/08/12 07:38:49;;;;;;;0.00;0.00;;;;;;;22.76;55.76;97735.06;5064255;28;20044;-72
2023/08/12 07:41:17;;;;;;;0.10;0.10;;;;;;;22.78;55.55;97736.44;5057771;28;20056;-73
2023/08/12 07:43:46;;;;;;;0.00;0.00;;;;;;;22.80;55.68;97741.63;5055357;28;20059;-74
2023/08/12 07:46:14;;;;;;;0.20;0.20;;;;;;;22.82;55.58;97732.13;5077787;28;20037;-72
2023/08/12 07:48:42;;;;;;;0.10;0.10;;;;;;;22.82;54.70;97725.84;5057572;28;20116;-71
2023/08/12 07:51:10;;;;;;;0.10;0.10;;;;;;;22.80;55.18;97723.41;5082837;28;20079;-73
2023/08/12 07:53:38;;;;;;;0.10;0.10;;;;;;;22.82;55.59;97732.13;5063255;28;20068;-72
2023/08/12 07:56:05;;;;;;;0.10;0.10;;;;;;;22.84;55.15;97727.19;5074441;28;20044;-75
2023/08/12 07:58:33;;;;;;;0.10;0.10;;;;;;;22.84;55.40;97729.91;5069448;28;20049;-71
2023/08/12 08:01:02;;;;;;;0.00;0.00;;;;;;;22.87;55.32;97729.38;5065658;28;20072;-72
2023/08/12 08:03:30;;;;;;;0.00;0.00;;;;;;;22.90;55.36;97720.69;5063823;28;20115;-73
2023/08/12 08:05:57;;;;;;;0.03;0.03;;;;;;;22.93;55.52;97728.31;5055603;28;20048;-72
2023/08/12 08:08:25;;;;;;;0.10;0.10;;;;;;;23.00;55.30;97723.41;5081769;28;20048;-72
2023/08/12 08:10:53;;;;;;;0.10;0.10;;;;;;;23.07;55.48;97720.41;5066812;28;20047;-72
2023/08/12 08:13:20;;;;;;;0.00;0.00;;;;;;;23.19;55.28;97725.59;5080952;28;20512;-71
2023/08/12 08:15:48;;;;;;;0.08;0.08;;;;;;;23.29;54.94;97717.41;5062019;28;20063;-75
2023/08/12 08:18:17;;;;;;;0.10;0.10;;;;;;;23.41;54.38;97723.41;5056450;28;20049;-71
2023/08/12 08:20:45;;;;;;;0.00;0.00;;;;;;;23.46;54.35;97720.69;5066678;28;20056;-72
2023/08/12 08:23:13;;;;;;;0.08;0.08;;;;;;;23.45;53.67;97713.59;5065126;28;20058;-71
2023/08/12 08:25:41;;;;;;;0.00;0.00;;;;;;;23.45;53.71;97724.50;5067833;28;20410;-74
2023/08/12 08:28:09;;;;;;;0.10;0.10;;;;;;;23.48;54.21;97717.66;5062638;28;20576;-76
2023/08/12 08:30:37;;;;;;;0.10;0.10;;;;;;;23.51;53.28;97717.16;5057115;28;20041;-71
2023/08/12 08:33:05;;;;;;;0.03;0.03;;;;;;;23.50;53.18;97719.06;5076359;28;20397;-73
2023/08/12 08:35:34;;;;;;;0.08;0.08;;;;;;;23.50;53.47;97723.69;5074744;28;20083;-72
2023/08/12 08:38:02;;;;;;;0.00;0.00;;;;;;;23.53;53.10;97721.25;5056708;28;20127;-72
2023/08/12 08:40:30;;;;;;;0.00;0.00;;;;;;;23.52;52.24;97724.25;5058430;28;20111;-71
2023/08/12 08:43:00;;;;;;;0.10;0.10;;;;;;;23.55;52.63;97719.06;5052809;28;20132;-77
2023/08/12 08:45:29;;;;;;;0.00;0.00;;;;;;;23.58;52.00;97718.50;5071158;28;20056;-72
2023/08/12 08:47:57;;;;;;;0.10;0.10;;;;;;;23.63;51.50;97709.50;5065998;28;20052;-71
2023/08/12 08:50:25;;;;;;;0.10;0.10;;;;;;;23.68;51.85;97710.31;5062472;28;20045;-72
2023/08/12 08:52:54;;;;;;;0.00;0.00;;;;;;;23.75;51.88;97710.03;5065545;28;20041;-72
2023/08/12 08:55:21;;;;;;;0.00;0.00;;;;;;;23.82;51.99;97718.75;5058172;28;20041;-72
2023/08/12 08:57:50;;;;;;;0.00;0.00;;;;;;;23.90;51.16;97718.16;5059474;28;20497;-73
2023/08/12 09:00:18;;;;;;;0.00;0.00;;;;;;;23.99;50.45;97705.59;5049444;28;20056;-72
2023/08/12 09:02:47;;;;;;;0.00;0.00;;;;;;;24.08;49.82;97719.50;5054348;28;20028;-72
2023/08/12 09:05:15;;;;;;;0.00;0.00;;;;;;;24.15;49.16;97700.91;5063498;28;20040;-71
2023/08/12 09:07:44;;;;;;;0.00;0.00;;;;;;;24.21;48.81;97707.13;5065939;28;20052;-72
2023/08/12 09:10:13;;;;;;;0.03;0.03;;;;;;;24.26;48.65;97709.91;5072145;28;20394;-71
2023/08/12 09:12:43;;;;;;;0.10;0.10;;;;;;;24.26;49.05;97720.81;5058866;28;20068;-71
2023/08/12 09:15:11;;;;;;;0.00;0.00;;;;;;;24.24;48.13;97715.63;5053435;28;20041;-72
2023/08/12 09:17:39;;;;;;;0.00;0.00;;;;;;;24.20;48.29;97703.59;5054887;28;20500;-72
2023/08/12 09:20:11;;;;;;;0.10;0.10;;;;;;;24.25;48.24;97711.81;5058906;28;20060;-71
2023/08/12 09:22:41;;;;;;;0.00;0.00;;;;;;;24.23;49.19;97705.81;5055135;28;20079;-71
2023/08/12 09:25:09;;;;;;;0.00;0.00;;;;;;;24.17;48.88;97704.19;5059713;28;20076;-71
2023/08/12 09:27:39;;;;;;;0.00;0.00;;;;;;;24.07;49.31;97701.50;5057595;28;20051;-72
2023/08/12 09:30:07;;;;;;;0.00;0.00;;;;;;;24.11;50.16;97700.63;5062668;28;20059;-71
2023/08/12 09:32:38;;;;;;;0.00;0.00;;;;;;;24.05;50.10;97696.31;5066079;28;20036;-71
2023/08/12 09:35:06;;;;;;;0.03;0.03;;;;;;;24.05;50.02;97698.22;5065416;28;20045;-71
2023/08/12 09:37:34;;;;;;;0.08;0.08;;;;;;;24.06;49.30;97699.84;5062571;28;20045;-72
2023/08/12 09:40:05;;;;;;;0.00;0.00;;;;;;;24.13;50.18;97714.81;5061342;28;20045;-72
2023/08/12 09:42:33;;;;;;;0.05;0.05;;;;;;;24.29;49.36;97701.16;5060690;28;20374;-72
2023/08/12 09:45:03;;;;;;;0.10;0.10;;;;;;;24.41;49.58;97710.63;5069627;28;20044;-72
2023/08/12 09:47:31;;;;;;;0.00;0.00;;;;;;;24.42;49.81;97700.53;5072758;28;20086;-72
2023/08/12 09:49:59;;;;;;;0.10;0.10;;;;;;;24.54;49.46;97694.72;5056226;28;20379;-72
2023/08/12 09:52:28;;;;;;;0.00;0.00;;;;;;;24.59;48.85;97686.53;5084520;28;20036;-72
2023/08/12 09:54:57;;;;;;;0.00;0.00;;;;;;;24.61;48.51;97693.31;5073369;28;20047;-72
2023/08/12 09:57:26;;;;;;;0.00;0.00;;;;;;;24.71;47.79;97697.91;5060783;28;20528;-72
2023/08/12 09:59:54;;;;;;;0.03;0.03;;;;;;;24.65;48.12;97699.03;5060342;28;20036;-72
2023/08/12 10:02:24;;;;;;;0.10;0.10;;;;;;;24.71;47.55;97700.66;5059875;28;20037;-71
2023/08/12 10:04:55;;;;;;;0.10;0.10;;;;;;;24.77;47.96;97691.31;5050260;28;20098;-71
2023/08/12 10:07:24;;;;;;;0.00;0.00;;;;;;;24.71;47.93;97701.44;5066077;28;20032;-71
2023/08/12 10:09:52;;;;;;;0.05;0.05;;;;;;;24.76;47.99;97704.16;5065929;28;20040;-71
2023/08/12 10:12:20;;;;;;;0.10;0.10;;;;;;;24.81;47.95;97704.09;5066526;28;20416;-72
2023/08/12 10:14:48;;;;;;;0.00;0.00;;;;;;;24.75;47.28;97705.25;5075009;28;20037;-71
2023/08/12 10:17:16;;;;;;;0.00;0.00;;;;;;;24.78;47.15;97698.41;5060083;28;20496;-71
2023/08/12 10:20:08;;;;;;;0.00;0.00;;;;;;;24.74;47.67;97695.41;5075707;28;20048;-71
2023/08/12 10:22:36;;;;;;;0.03;0.03;;;;;;;24.76;47.88;97698.69;5073285;28;20037;-71
2023/08/12 10:25:05;;;;;;;0.00;0.00;;;;;;;24.77;47.06;97696.78;5065751;28;20051;-71
2023/08/12 10:27:33;;;;;;;0.00;0.00;;;;;;;24.74;46.13;97694.59;5061844;28;20056;-71
2023/08/12 10:30:03;;;;;;;0.10;0.10;;;;;;;24.78;47.47;97698.41;5071055;28;20045;-71
2023/08/12 10:32:32;;;;;;;0.00;0.00;;;;;;;24.80;46.81;97696.22;5069435;28;20078;-72
2023/08/12 10:35:00;;;;;;;0.00;0.00;;;;;;;24.87;47.11;97683.88;5080721;28;20067;-71
2023/08/12 10:37:34;;;;;;;0.05;0.05;;;;;;;25.00;46.21;97678.88;5072456;28;20037;-71
2023/08/12 10:40:05;;;;;;;0.05;0.05;;;;;;;25.12;46.35;97687.53;5069066;28;20040;-71
2023/08/12 10:42:43;;;;;;;0.00;0.00;;;;;;;25.32;45.58;97686.53;5067938;28;20052;-71
2023/08/12 10:45:12;;;;;;;0.00;0.00;;;;;;;25.44;45.19;97686.94;5068347;28;20044;-71
2023/08/12 10:47:41;;;;;;;0.10;0.10;;;;;;;25.49;44.79;97687.72;5061187;28;20436;-71
2023/08/12 10:50:18;;;;;;;0.40;0.40;;;;;;;25.51;44.96;97690.19;5059507;28;20437;-71
2023/08/12 10:52:47;;;;;;;0.00;0.00;;;;;;;25.53;44.37;97690.72;5062741;28;20044;-71
2023/08/12 10:55:20;;;;;;;0.00;0.00;;;;;;;25.55;45.01;97683.00;5058678;28;20083;-71
2023/08/12 10:57:49;;;;;;;0.00;0.00;;;;;;;25.62;44.91;97683.53;5067748;28;20052;-71
2023/08/12 11:00:17;;;;;;;0.00;0.00;;;;;;;25.66;43.79;97686.50;5061637;28;20048;-71
2023/08/12 11:02:46;;;;;;;0.05;0.05;;;;;;;25.69;43.94;97686.75;5067221;28;20044;-71
2023/08/12 11:05:14;;;;;;;0.10;0.10;;;;;;;25.73;42.93;97676.88;5060269;28;20083;-71
2023/08/12 11:07:43;;;;;;;0.10;0.10;;;;;;;25.84;43.33;97672.09;5064016;28;20044;-71
2023/08/12 11:10:14;;;;;;;0.00;0.00;;;;;;;26.05;42.31;97672.66;5062933;28;20127;-71
2023/08/12 11:12:43;;;;;;;0.00;0.00;;;;;;;26.24;42.33;97663.38;5059178;28;20044;-71
2023/08/12 11:15:10;;;;;;;0.00;0.00;;;;;;;26.45;41.30;97647.53;5077888;28;20049;-71
2023/08/12 11:17:40;;;;;;;0.00;0.00;;;;;;;26.78;41.37;97662.09;5065054;28;20048;-71
2023/08/12 11:20:09;;;;;;;0.00;0.00;;;;;;;27.11;40.58;97637.47;5078464;28;20052;-71
2023/08/12 11:22:38;;;;;;;0.00;0.00;;;;;;;27.44;40.12;97641.00;5073182;28;20047;-71
2023/08/12 11:25:08;;;;;;;0.00;0.00;;;;;;;27.72;39.18;97642.69;5068868;28;20044;-71
2023/08/12 11:27:39;;;;;;;0.00;0.00;;;;;;;27.90;38.65;97641.78;5059108;28;20061;-71
2023/08/12 11:30:10;;;;;;;0.00;0.00;;;;;;;28.06;37.49;97639.50;5055585;28;20052;-72
2023/08/12 11:33:58;;;;;;;0.00;0.00;;;;;;;28.15;37.75;97629.44;5070470;28;20119;-70
2023/08/12 11:36:25;;;;;;;0.00;0.00;;;;;;;28.49;37.54;97626.25;5040939;28;20045;-71
2023/08/12 11:38:53;;;;;;;0.00;0.00;;;;;;;28.66;36.39;97625.56;5059459;28;20155;-71
2023/08/12 11:41:23;;;;;;;0.00;0.00;;;;;;;28.69;36.22;97628.50;5064145;28;20123;-72